createdAt,value
2023-05-10T00:00:29.007Z,11.44
2023-05-10T00:02:55.843Z,11.44
2023-05-10T00:05:22.455Z,11.45
2023-05-10T00:07:49.095Z,11.47
2023-05-10T00:10:15.902Z,11.49
2023-05-10T00:12:50.551Z,11.49
2023-05-10T00:15:17.052Z,11.56
2023-05-10T00:17:43.572Z,11.53
2023-05-10T00:20:10.927Z,11.54
2023-05-10T00:22:37.385Z,11.54
2023-05-10T00:25:04.195Z,11.56
2023-05-10T00:27:30.835Z,11.58
2023-05-10T00:29:59.938Z,11.60
2023-05-10T00:32:26.486Z,11.64
2023-05-10T00:34:52.982Z,11.65
2023-05-10T00:37:19.494Z,11.72
2023-05-10T00:39:46.087Z,11.75
2023-05-10T00:42:12.607Z,11.79
2023-05-10T00:44:41.827Z,11.80
2023-05-10T00:47:09.184Z,11.82
2023-05-10T00:49:36.634Z,11.84
2023-05-10T00:52:04.052Z,11.86
2023-05-10T00:54:31.243Z,11.86
2023-05-10T00:57:00.026Z,11.87
2023-05-10T00:59:26.859Z,11.89
2023-05-10T01:01:54.267Z,11.89
2023-05-10T01:04:26.477Z,11.90
2023-05-10T01:06:54.446Z,11.91
2023-05-10T01:09:22.350Z,11.93
2023-05-10T01:11:50.016Z,11.95
2023-05-10T01:14:20.850Z,11.97
2023-05-10T01:16:49.354Z,11.97
2023-05-10T01:19:27.593Z,11.97
2023-05-10T01:22:06.402Z,11.99
2023-05-10T01:24:39.013Z,11.99
2023-05-10T01:27:38.687Z,12.00
2023-05-10T01:30:28.798Z,12.01
2023-05-10T01:32:58.275Z,12.01
2023-05-10T01:35:33.579Z,11.99
2023-05-10T01:38:11.469Z,11.97
2023-05-10T01:40:51.232Z,11.99
2023-05-10T01:43:29.486Z,11.98
2023-05-10T01:46:11.739Z,11.97
2023-05-10T01:48:47.280Z,12.00
2023-05-10T01:51:17.867Z,11.99
2023-05-10T01:53:49.703Z,12.00
2023-05-10T01:56:17.135Z,12.02
2023-05-10T01:58:47.836Z,12.04
2023-05-10T02:01:17.709Z,12.03
2023-05-10T02:03:44.980Z,12.03
2023-05-10T02:06:13.833Z,12.03
2023-05-10T02:08:42.161Z,12.04
2023-05-10T02:11:10.042Z,12.04
2023-05-10T02:13:40.679Z,12.02
2023-05-10T02:16:08.395Z,12.01
2023-05-10T02:18:37.634Z,12.01
2023-05-10T02:21:05.086Z,11.99
2023-05-10T02:23:33.999Z,11.99
2023-05-10T02:26:02.884Z,11.98
2023-05-10T02:28:30.658Z,11.97
2023-05-10T02:30:57.665Z,11.92
2023-05-10T02:33:25.365Z,11.89
2023-05-10T02:35:52.335Z,11.86
2023-05-10T02:38:21.822Z,11.86
2023-05-10T02:40:49.206Z,11.86
2023-05-10T02:43:18.156Z,11.86
2023-05-10T02:45:49.152Z,11.83
2023-05-10T02:48:17.126Z,11.80
2023-05-10T02:50:49.643Z,11.80
2023-05-10T02:53:21.938Z,11.79
2023-05-10T02:55:52.778Z,11.79
2023-05-10T02:58:20.374Z,11.76
2023-05-10T03:00:47.581Z,11.68
2023-05-10T03:03:14.404Z,11.64
2023-05-10T03:05:40.866Z,11.63
2023-05-10T03:08:07.694Z,11.56
2023-05-10T03:10:39.050Z,11.47
2023-05-10T03:13:33.717Z,11.43
2023-05-10T03:16:10.348Z,11.41
2023-05-10T03:18:47.129Z,11.40
2023-05-10T03:21:17.446Z,11.37
2023-05-10T03:24:01.372Z,11.36
2023-05-10T03:26:32.286Z,11.34
2023-05-10T03:29:00.111Z,11.36
2023-05-10T03:31:27.104Z,11.37
2023-05-10T03:33:53.964Z,11.37
2023-05-10T03:36:22.056Z,11.39
2023-05-10T03:38:48.613Z,11.39
2023-05-10T03:41:15.166Z,11.41
2023-05-10T03:43:42.169Z,11.42
2023-05-10T03:46:08.782Z,11.44
2023-05-10T03:48:35.937Z,11.44
2023-05-10T03:51:02.458Z,11.44
2023-05-10T03:53:28.989Z,11.43
2023-05-10T03:55:55.643Z,11.42
2023-05-10T03:58:22.957Z,11.42
2023-05-10T04:00:49.617Z,11.41
2023-05-10T04:03:16.525Z,11.41
2023-05-10T04:05:45.696Z,11.42
2023-05-10T04:08:12.421Z,11.42
2023-05-10T04:10:39.222Z,11.43
2023-05-10T04:13:05.822Z,11.44
2023-05-10T04:15:32.340Z,11.45
2023-05-10T04:17:58.923Z,11.45
2023-05-10T04:20:25.551Z,11.48
2023-05-10T04:22:52.186Z,11.50
2023-05-10T04:25:18.711Z,11.51
2023-05-10T04:27:45.213Z,11.53
2023-05-10T04:30:12.222Z,11.54
2023-05-10T04:32:38.788Z,11.55
2023-05-10T04:35:05.743Z,11.56
2023-05-10T04:37:32.259Z,11.56
2023-05-10T04:40:00.899Z,11.57
2023-05-10T04:42:27.364Z,11.58
2023-05-10T04:44:57.333Z,11.60
2023-05-10T04:47:23.897Z,11.63
2023-05-10T04:49:50.378Z,11.61
2023-05-10T04:52:18.414Z,11.64
2023-05-10T04:54:44.942Z,11.66
2023-05-10T04:57:11.736Z,11.65
2023-05-10T04:59:38.626Z,11.69
2023-05-10T05:02:06.052Z,11.72
2023-05-10T05:04:32.698Z,11.73
2023-05-10T05:06:59.185Z,11.75
2023-05-10T05:09:25.698Z,11.79
2023-05-10T05:11:52.761Z,11.81
2023-05-10T05:14:19.255Z,11.84
2023-05-10T05:16:45.782Z,11.89
2023-05-10T05:19:12.276Z,11.90
2023-05-10T05:21:39.113Z,11.94
2023-05-10T05:24:06.155Z,11.94
2023-05-10T05:26:32.683Z,11.95
2023-05-10T05:28:59.183Z,11.94
2023-05-10T05:31:26.050Z,11.94
2023-05-10T05:33:52.728Z,11.95
2023-05-10T05:36:19.638Z,11.96
2023-05-10T05:38:46.178Z,11.97
2023-05-10T05:41:13.113Z,11.98
2023-05-10T05:43:39.579Z,12.01
2023-05-10T05:46:06.556Z,12.01
2023-05-10T05:48:36.448Z,12.03
2023-05-10T05:51:03.432Z,12.06
2023-05-10T05:53:31.216Z,12.10
2023-05-10T05:55:59.404Z,12.12
2023-05-10T05:58:26.876Z,12.12
2023-05-10T06:00:53.629Z,12.11
2023-05-10T06:03:20.766Z,12.08
2023-05-10T06:05:47.889Z,12.03
2023-05-10T06:08:14.314Z,11.96
2023-05-10T06:10:40.771Z,11.91
2023-05-10T06:13:07.569Z,11.90
2023-05-10T06:15:34.452Z,11.90
2023-05-10T06:18:01.230Z,11.93
2023-05-10T06:20:27.862Z,11.91
2023-05-10T06:22:55.705Z,11.93
2023-05-10T06:25:22.396Z,11.95
2023-05-10T06:27:52.588Z,11.97
2023-05-10T06:30:20.396Z,11.96
2023-05-10T06:32:47.257Z,11.96
2023-05-10T06:35:14.162Z,12.00
2023-05-10T06:37:40.831Z,12.05
2023-05-10T06:40:08.221Z,12.15
2023-05-10T06:42:34.682Z,12.21
2023-05-10T06:45:04.762Z,12.19
2023-05-10T06:47:31.242Z,12.21
2023-05-10T06:50:00.704Z,12.26
2023-05-10T06:52:27.161Z,12.28
2023-05-10T06:54:53.692Z,12.33
2023-05-10T06:57:31.122Z,12.39
2023-05-10T07:00:02.558Z,12.46
2023-05-10T07:02:29.500Z,12.51
2023-05-10T07:04:56.127Z,12.52
2023-05-10T07:07:22.651Z,12.47
2023-05-10T07:09:50.608Z,12.42
2023-05-10T07:12:17.123Z,12.38
2023-05-10T07:14:43.641Z,12.39
2023-05-10T07:17:10.862Z,12.43
2023-05-10T07:19:37.431Z,12.49
2023-05-10T07:22:04.118Z,12.60
2023-05-10T07:24:32.233Z,12.73
2023-05-10T07:26:58.962Z,12.72
2023-05-10T07:29:25.489Z,12.67
2023-05-10T07:31:52.357Z,12.56
2023-05-10T07:34:19.003Z,12.52
2023-05-10T07:36:45.453Z,12.46
2023-05-10T07:39:16.241Z,12.43
2023-05-10T07:41:49.129Z,12.53
2023-05-10T07:44:15.804Z,12.65
2023-05-10T07:46:42.269Z,12.76
2023-05-10T07:49:08.756Z,12.90
2023-05-10T07:51:35.363Z,13.07
2023-05-10T07:54:03.611Z,13.13
2023-05-10T07:56:32.800Z,13.18
2023-05-10T07:59:00.768Z,13.24
2023-05-10T08:01:30.739Z,13.18
2023-05-10T08:03:57.264Z,13.16
2023-05-10T08:06:23.737Z,13.12
2023-05-10T08:08:51.492Z,13.12
2023-05-10T08:11:18.568Z,13.15
2023-05-10T08:13:49.785Z,13.14
2023-05-10T08:16:17.672Z,13.09
2023-05-10T08:18:46.421Z,13.08
2023-05-10T08:21:14.461Z,13.04
2023-05-10T08:23:41.608Z,13.04
2023-05-10T08:26:08.079Z,13.02
2023-05-10T08:28:34.624Z,13.07
2023-05-10T08:31:01.297Z,13.12
2023-05-10T08:33:28.046Z,13.21
2023-05-10T08:35:54.478Z,13.28
2023-05-10T08:38:21.290Z,13.25
2023-05-10T08:40:50.346Z,13.25
2023-05-10T08:43:16.915Z,13.32
2023-05-10T08:45:46.359Z,13.35
2023-05-10T08:48:12.881Z,13.38
2023-05-10T08:50:41.068Z,13.45
2023-05-10T08:53:11.996Z,13.51
2023-05-10T08:55:39.837Z,13.56
2023-05-10T08:58:06.871Z,13.64
2023-05-10T09:00:34.647Z,13.53
2023-05-10T09:03:02.589Z,13.56
2023-05-10T09:05:29.540Z,13.65
2023-05-10T09:07:56.326Z,13.75
2023-05-10T09:10:24.082Z,13.89
2023-05-10T09:12:51.048Z,14.06
2023-05-10T09:15:20.323Z,14.28
2023-05-10T09:17:48.260Z,14.43
2023-05-10T09:20:15.043Z,14.51
2023-05-10T09:22:41.785Z,14.75
2023-05-10T09:25:15.824Z,15.03
2023-05-10T09:27:46.576Z,15.29
2023-05-10T09:30:29.456Z,15.53
2023-05-10T09:32:57.293Z,15.67
2023-05-10T09:35:29.347Z,15.86
2023-05-10T09:37:58.555Z,16.02
2023-05-10T09:40:26.708Z,16.17
2023-05-10T09:43:00.571Z,16.45
2023-05-10T09:45:29.151Z,16.71
2023-05-10T09:47:56.581Z,16.84
2023-05-10T09:50:24.073Z,16.79
2023-05-10T09:53:01.660Z,16.78
2023-05-10T09:55:50.240Z,16.67
2023-05-10T09:58:16.917Z,16.59
2023-05-10T10:00:45.988Z,16.66
2023-05-10T10:03:21.345Z,16.62
2023-05-10T10:05:51.250Z,16.63
2023-05-10T10:08:18.655Z,16.55
2023-05-10T10:10:47.017Z,16.38
2023-05-10T10:13:14.244Z,16.09
2023-05-10T10:15:40.941Z,15.83
2023-05-10T10:18:08.971Z,15.86
2023-05-10T10:20:38.574Z,15.91
2023-05-10T10:23:05.201Z,15.93
2023-05-10T10:25:32.108Z,15.99
2023-05-10T10:28:33.491Z,16.07
2023-05-10T10:31:16.830Z,16.05
2023-05-10T10:34:02.102Z,16.14
2023-05-10T10:36:28.789Z,16.12
2023-05-10T10:39:00.473Z,16.05
2023-05-10T10:41:32.211Z,15.95
2023-05-10T10:44:26.349Z,15.97
2023-05-10T10:47:30.839Z,15.96
2023-05-10T10:50:06.192Z,15.95
2023-05-10T10:52:39.985Z,16.08
2023-05-10T10:55:23.374Z,16.15
2023-05-10T10:58:01.376Z,16.16
2023-05-10T11:00:33.160Z,16.34
2023-05-10T11:03:19.783Z,16.38
2023-05-10T11:05:50.534Z,16.32
2023-05-10T11:08:35.759Z,16.28
2023-05-10T11:11:10.611Z,16.34
2023-05-10T11:13:44.612Z,16.23
2023-05-10T11:16:21.345Z,16.13
2023-05-10T11:19:09.286Z,15.95
2023-05-10T11:21:47.088Z,15.98
2023-05-10T11:24:19.993Z,16.01
2023-05-10T11:26:46.867Z,16.14
2023-05-10T11:29:14.699Z,16.24
2023-05-10T11:31:46.136Z,16.45
2023-05-10T11:34:13.632Z,16.61
2023-05-10T11:36:40.096Z,16.92
2023-05-10T11:39:07.707Z,17.41
2023-05-10T11:41:34.296Z,17.57
2023-05-10T11:44:00.977Z,17.79
2023-05-10T11:46:30.778Z,18.24
2023-05-10T11:49:02.905Z,18.44
2023-05-10T11:51:29.575Z,18.36
2023-05-10T11:53:57.705Z,18.10
2023-05-10T11:56:27.547Z,18.18
2023-05-10T11:59:00.912Z,17.91
2023-05-10T12:01:31.709Z,17.64
2023-05-10T12:04:01.751Z,17.59
2023-05-10T12:06:30.449Z,17.65
2023-05-10T12:08:57.049Z,17.59
2023-05-10T12:11:27.263Z,17.74
2023-05-10T12:13:56.049Z,17.85
2023-05-10T12:16:23.608Z,17.99
2023-05-10T12:18:57.195Z,18.26
2023-05-10T12:21:23.930Z,18.09
2023-05-10T12:23:55.525Z,18.00
2023-05-10T12:26:27.288Z,18.04
2023-05-10T12:29:19.969Z,18.33
2023-05-10T12:31:58.004Z,18.27
2023-05-10T12:34:37.161Z,18.19
2023-05-10T12:37:04.245Z,18.28
2023-05-10T12:39:45.258Z,18.34
2023-05-10T12:42:12.185Z,18.42
2023-05-10T12:44:44.049Z,18.75
2023-05-10T12:47:10.430Z,18.92
2023-05-10T12:49:36.949Z,18.86
2023-05-10T12:52:03.682Z,18.92
2023-05-10T12:54:30.086Z,18.80
2023-05-10T12:56:56.611Z,18.99
2023-05-10T12:59:23.803Z,18.99
2023-05-10T13:01:50.561Z,18.56
2023-05-10T13:04:17.107Z,18.32
2023-05-10T13:06:43.689Z,18.02
2023-05-10T13:09:10.117Z,17.88
2023-05-10T13:11:36.914Z,17.55
2023-05-10T13:14:04.367Z,17.02
2023-05-10T13:16:31.081Z,16.52
2023-05-10T13:18:57.630Z,16.13
2023-05-10T13:21:25.587Z,15.74
2023-05-10T13:23:52.231Z,15.21
2023-05-10T13:26:18.656Z,14.73
2023-05-10T13:28:45.079Z,14.42
2023-05-10T13:31:14.366Z,14.08
2023-05-10T13:33:43.241Z,13.90
2023-05-10T13:36:09.806Z,13.54
2023-05-10T13:38:36.391Z,13.39
2023-05-10T13:41:05.552Z,13.23
2023-05-10T13:43:32.042Z,12.98
2023-05-10T13:45:58.699Z,12.81
2023-05-10T13:48:25.177Z,12.71
2023-05-10T13:50:51.667Z,12.77
2023-05-10T13:53:18.084Z,12.76
2023-05-10T13:55:45.095Z,12.84
2023-05-10T13:58:11.897Z,12.90
2023-05-10T14:00:38.320Z,12.88
2023-05-10T14:03:06.251Z,12.85
2023-05-10T14:05:33.105Z,12.84
2023-05-10T14:07:59.507Z,12.80
2023-05-10T14:10:25.928Z,12.83
2023-05-10T14:12:52.698Z,12.87
2023-05-10T14:15:19.441Z,12.90
2023-05-10T14:17:46.072Z,12.92
2023-05-10T14:20:12.518Z,13.03
2023-05-10T14:22:38.910Z,13.02
2023-05-10T14:25:05.706Z,13.02
2023-05-10T14:27:33.628Z,13.02
2023-05-10T14:30:01.205Z,13.04
2023-05-10T14:32:29.017Z,13.02
2023-05-10T14:34:55.848Z,12.96
2023-05-10T14:37:23.470Z,13.01
2023-05-10T14:39:49.934Z,13.05
2023-05-10T14:42:16.357Z,13.10
2023-05-10T14:44:42.803Z,13.14
2023-05-10T14:47:10.591Z,13.21
2023-05-10T14:49:38.327Z,13.25
2023-05-10T14:52:04.741Z,13.32
2023-05-10T14:54:31.192Z,13.36
2023-05-10T14:56:57.647Z,13.39
2023-05-10T14:59:24.082Z,13.47
2023-05-10T15:01:50.895Z,13.52
2023-05-10T15:04:17.934Z,13.55
2023-05-10T15:06:45.238Z,13.60
2023-05-10T15:09:11.745Z,13.66
2023-05-10T15:11:38.258Z,13.81
2023-05-10T15:14:04.648Z,13.97
2023-05-10T15:16:35.027Z,14.10
2023-05-10T15:19:02.720Z,14.18
2023-05-10T15:21:29.216Z,14.30
2023-05-10T15:23:55.710Z,14.42
2023-05-10T15:26:23.016Z,14.49
2023-05-10T15:28:49.739Z,14.59
2023-05-10T15:31:16.238Z,14.68
2023-05-10T15:33:42.684Z,14.66
2023-05-10T15:36:09.118Z,14.72
2023-05-10T15:38:35.653Z,14.74
2023-05-10T15:41:02.531Z,14.78
2023-05-10T15:43:29.673Z,14.82
2023-05-10T15:45:56.565Z,14.92
2023-05-10T15:48:23.641Z,15.02
2023-05-10T15:50:50.387Z,15.22
2023-05-10T15:53:16.946Z,15.38
2023-05-10T15:55:44.241Z,15.54
2023-05-10T15:58:11.544Z,15.52
2023-05-10T16:00:39.333Z,15.62
2023-05-10T16:03:08.649Z,15.67
2023-05-10T16:05:35.395Z,15.79
2023-05-10T16:08:05.364Z,15.66
2023-05-10T16:10:33.257Z,15.62
2023-05-10T16:13:00.512Z,15.58
2023-05-10T16:15:27.747Z,15.50
2023-05-10T16:17:54.588Z,15.39
2023-05-10T16:20:21.229Z,15.35
2023-05-10T16:22:47.684Z,15.24
2023-05-10T16:25:14.497Z,15.14
2023-05-10T16:27:41.077Z,15.00
2023-05-10T16:30:08.897Z,14.90
2023-05-10T16:32:35.532Z,14.92
2023-05-10T16:35:02.135Z,14.97
2023-05-10T16:37:31.631Z,14.93
2023-05-10T16:39:58.162Z,14.88
2023-05-10T16:42:26.146Z,14.93
2023-05-10T16:44:53.967Z,15.00
2023-05-10T16:47:20.436Z,15.02
2023-05-10T16:49:46.957Z,15.15
2023-05-10T16:52:14.227Z,15.20
2023-05-10T16:54:40.744Z,15.19
2023-05-10T16:57:08.560Z,15.26
2023-05-10T16:59:35.130Z,15.37
2023-05-10T17:02:01.900Z,15.40
2023-05-10T17:04:28.645Z,15.48
2023-05-10T17:06:55.080Z,15.51
2023-05-10T17:09:21.562Z,15.61
2023-05-10T17:11:47.994Z,15.62
2023-05-10T17:14:14.606Z,15.61
2023-05-10T17:16:41.910Z,15.59
2023-05-10T17:19:09.256Z,15.66
2023-05-10T17:21:36.290Z,15.65
2023-05-10T17:24:02.757Z,15.60
2023-05-10T17:26:30.107Z,15.57
2023-05-10T17:28:57.433Z,15.55
2023-05-10T17:31:23.999Z,15.53
2023-05-10T17:33:50.390Z,15.53
2023-05-10T17:36:16.847Z,15.45
2023-05-10T17:38:43.520Z,15.35
2023-05-10T17:41:10.085Z,15.22
2023-05-10T17:43:36.571Z,15.16
2023-05-10T17:46:03.697Z,15.10
2023-05-10T17:48:33.118Z,15.09
2023-05-10T17:50:59.871Z,15.08
2023-05-10T17:53:26.317Z,15.11
2023-05-10T17:55:52.813Z,15.17
2023-05-10T17:58:19.284Z,15.17
2023-05-10T18:00:46.395Z,15.22
2023-05-10T18:03:12.961Z,15.21
2023-05-10T18:05:39.658Z,15.09
2023-05-10T18:08:07.444Z,15.02
2023-05-10T18:10:34.521Z,14.92
2023-05-10T18:13:02.486Z,14.82
2023-05-10T18:15:28.973Z,14.73
2023-05-10T18:17:56.990Z,14.63
2023-05-10T18:20:23.523Z,14.55
2023-05-10T18:22:50.310Z,14.50
2023-05-10T18:25:17.284Z,14.45
2023-05-10T18:27:44.064Z,14.41
2023-05-10T18:30:12.746Z,14.40
2023-05-10T18:32:39.759Z,14.42
2023-05-10T18:35:07.900Z,14.43
2023-05-10T18:37:35.053Z,14.43
2023-05-10T18:40:02.008Z,14.39
2023-05-10T18:42:32.732Z,14.33
2023-05-10T18:44:59.188Z,14.29
2023-05-10T18:47:26.666Z,14.24
2023-05-10T18:49:53.346Z,14.20
2023-05-10T18:52:19.870Z,14.17
2023-05-10T18:54:46.617Z,14.10
2023-05-10T18:57:13.911Z,14.03
2023-05-10T18:59:40.487Z,13.98
2023-05-10T19:02:07.426Z,13.92
2023-05-10T19:04:34.237Z,13.87
2023-05-10T19:07:02.041Z,13.80
2023-05-10T19:09:28.879Z,13.72
2023-05-10T19:11:55.518Z,13.63
2023-05-10T19:14:25.553Z,13.55
2023-05-10T19:16:53.685Z,13.46
2023-05-10T19:19:20.704Z,13.40
2023-05-10T19:21:48.202Z,13.36
2023-05-10T19:24:14.766Z,13.32
2023-05-10T19:26:41.561Z,13.23
2023-05-10T19:29:11.079Z,13.14
2023-05-10T19:31:40.119Z,13.11
2023-05-10T19:34:06.556Z,13.09
2023-05-10T19:36:34.420Z,13.01
2023-05-10T19:39:03.007Z,12.93
2023-05-10T19:41:29.482Z,12.92
2023-05-10T19:43:56.162Z,12.86
2023-05-10T19:46:22.857Z,12.82
2023-05-10T19:48:49.386Z,12.69
2023-05-10T19:51:15.889Z,12.61
2023-05-10T19:53:45.186Z,12.58
2023-05-10T19:56:13.343Z,12.57
2023-05-10T19:58:40.860Z,12.54
2023-05-10T20:01:07.715Z,12.50
2023-05-10T20:03:35.613Z,12.45
2023-05-10T20:06:03.002Z,12.42
2023-05-10T20:08:30.041Z,12.40
2023-05-10T20:10:59.250Z,12.37
2023-05-10T20:13:25.785Z,12.29
2023-05-10T20:15:55.809Z,12.24
2023-05-10T20:18:23.059Z,12.19
2023-05-10T20:20:57.591Z,12.15
2023-05-10T20:23:24.158Z,12.20
2023-05-10T20:25:51.372Z,12.24
2023-05-10T20:28:23.456Z,12.29
2023-05-10T20:30:54.896Z,12.35
2023-05-10T20:33:22.257Z,12.39
2023-05-10T20:35:50.345Z,12.43
2023-05-10T20:38:18.158Z,12.48
2023-05-10T20:40:44.914Z,12.50
2023-05-10T20:43:11.427Z,12.56
2023-05-10T20:45:38.090Z,12.60
2023-05-10T20:48:04.891Z,12.60
2023-05-10T20:50:31.509Z,12.65
2023-05-10T20:52:57.952Z,12.62
2023-05-10T20:55:24.533Z,12.61
2023-05-10T20:57:51.491Z,12.59
2023-05-10T21:00:18.455Z,12.61
2023-05-10T21:02:46.106Z,12.60
2023-05-10T21:05:12.767Z,12.62
2023-05-10T21:07:39.465Z,12.61
2023-05-10T21:10:10.470Z,12.63
2023-05-10T21:12:37.534Z,12.64
2023-05-10T21:15:04.634Z,12.61
2023-05-10T21:17:31.139Z,12.59
2023-05-10T21:19:57.665Z,12.59
2023-05-10T21:22:24.108Z,12.62
2023-05-10T21:24:50.545Z,12.60
2023-05-10T21:27:16.975Z,12.60
2023-05-10T21:29:43.690Z,12.59
2023-05-10T21:32:10.495Z,12.57
2023-05-10T21:34:36.978Z,12.55
2023-05-10T21:37:03.701Z,12.54
2023-05-10T21:39:30.442Z,12.48
2023-05-10T21:41:56.962Z,12.45
2023-05-10T21:44:23.411Z,12.42
2023-05-10T21:46:50.189Z,12.38
2023-05-10T21:49:17.845Z,12.37
2023-05-10T21:51:44.339Z,12.34
2023-05-10T21:54:11.025Z,12.32
2023-05-10T21:56:37.717Z,12.31
2023-05-10T21:59:04.565Z,12.27
2023-05-10T22:01:32.097Z,12.24
2023-05-10T22:03:58.565Z,12.24
2023-05-10T22:06:25.020Z,12.22
2023-05-10T22:08:52.972Z,12.19
2023-05-10T22:11:19.663Z,12.19
2023-05-10T22:13:48.646Z,12.15
2023-05-10T22:16:17.060Z,12.14
2023-05-10T22:18:44.198Z,12.13
2023-05-10T22:21:10.850Z,12.15
2023-05-10T22:23:37.364Z,12.15
2023-05-10T22:26:04.584Z,12.15
2023-05-10T22:28:31.128Z,12.15
2023-05-10T22:30:57.602Z,12.13
2023-05-10T22:33:24.152Z,12.10
2023-05-10T22:35:50.851Z,12.10
2023-05-10T22:38:19.042Z,12.12
2023-05-10T22:40:45.505Z,12.11
2023-05-10T22:43:12.095Z,12.10
2023-05-10T22:45:38.654Z,12.10
2023-05-10T22:48:05.500Z,12.11
2023-05-10T22:50:32.020Z,12.13
2023-05-10T22:52:58.478Z,12.11
2023-05-10T22:55:25.145Z,12.10
2023-05-10T22:57:52.637Z,12.08
2023-05-10T23:00:19.875Z,12.06
2023-05-10T23:02:46.689Z,12.03
2023-05-10T23:05:13.421Z,12.00
2023-05-10T23:07:39.887Z,11.99
2023-05-10T23:10:06.974Z,11.97
2023-05-10T23:12:33.965Z,11.94
2023-05-10T23:15:02.758Z,11.94
2023-05-10T23:17:29.293Z,11.91
2023-05-10T23:19:56.000Z,11.91
2023-05-10T23:22:22.535Z,11.89
2023-05-10T23:24:49.223Z,11.88
2023-05-10T23:27:15.884Z,11.87
2023-05-10T23:29:42.467Z,11.88
2023-05-10T23:32:09.219Z,11.89
2023-05-10T23:34:36.066Z,11.89
2023-05-10T23:37:02.618Z,11.90
2023-05-10T23:39:29.225Z,11.90
2023-05-10T23:41:55.932Z,11.91
2023-05-10T23:44:22.839Z,11.91
2023-05-10T23:46:49.429Z,11.91
2023-05-10T23:49:17.273Z,11.91
2023-05-10T23:51:43.849Z,11.90
2023-05-10T23:54:10.420Z,11.91
2023-05-10T23:56:37.550Z,11.89
2023-05-10T23:59:05.900Z,11.87
